createdAt,value
2018-08-07T00:02:09.439Z,53.47
2018-08-07T00:04:40.009Z,53.75
2018-08-07T00:07:10.513Z,53.90
2018-08-07T00:09:41.067Z,54.13
2018-08-07T00:12:11.699Z,53.61
2018-08-07T00:14:42.228Z,53.98
2018-08-07T00:17:12.747Z,54.57
2018-08-07T00:19:43.207Z,55.11
2018-08-07T00:22:13.609Z,54.33
2018-08-07T00:24:44.063Z,54.24
2018-08-07T00:27:14.498Z,53.77
2018-08-07T00:29:44.940Z,53.25
2018-08-07T00:32:15.458Z,52.93
2018-08-07T00:34:45.850Z,53.56
2018-08-07T00:37:16.338Z,54.05
2018-08-07T00:39:46.829Z,53.73
2018-08-07T00:42:17.299Z,54.43
2018-08-07T00:44:47.759Z,53.84
2018-08-07T00:47:18.200Z,54.04
2018-08-07T00:49:48.671Z,54.39
2018-08-07T00:52:19.103Z,54.28
2018-08-07T00:54:49.564Z,54.47
2018-08-07T00:57:20.108Z,54.69
2018-08-07T00:59:50.639Z,55.63
2018-08-07T01:02:21.077Z,55.78
2018-08-07T01:04:51.523Z,55.32
2018-08-07T01:07:22.023Z,55.00
2018-08-07T01:09:52.459Z,55.88
2018-08-07T01:12:22.912Z,55.19
2018-08-07T01:14:53.380Z,55.57
2018-08-07T01:17:23.802Z,55.38
2018-08-07T01:19:54.393Z,55.21
2018-08-07T01:22:24.859Z,55.59
2018-08-07T01:24:55.336Z,55.65
2018-08-07T01:27:25.885Z,54.85
2018-08-07T01:29:56.351Z,54.62
2018-08-07T01:32:26.904Z,55.89
2018-08-07T01:34:57.380Z,55.92
2018-08-07T01:37:27.872Z,56.83
2018-08-07T01:39:58.299Z,56.61
2018-08-07T01:42:28.774Z,56.83
2018-08-07T01:44:59.252Z,57.18
2018-08-07T01:47:29.670Z,57.18
2018-08-07T01:50:00.098Z,56.83
2018-08-07T01:52:30.740Z,57.18
2018-08-07T01:55:01.175Z,57.41
2018-08-07T01:57:31.715Z,57.95
2018-08-07T02:00:02.203Z,57.65
2018-08-07T02:02:32.796Z,57.01
2018-08-07T02:05:03.251Z,57.06
2018-08-07T02:07:33.737Z,57.08
2018-08-07T02:10:04.367Z,57.29
2018-08-07T02:12:34.764Z,57.43
2018-08-07T02:15:06.072Z,56.64
2018-08-07T02:17:36.519Z,56.64
2018-08-07T02:20:09.319Z,56.51
2018-08-07T02:22:40.442Z,56.03
2018-08-07T02:25:19.495Z,56.29
2018-08-07T02:27:49.972Z,55.49
2018-08-07T02:30:20.381Z,55.50
2018-08-07T02:32:50.920Z,56.14
2018-08-07T02:35:21.397Z,55.88
2018-08-07T02:37:51.875Z,56.96
2018-08-07T02:40:22.339Z,57.29
2018-08-07T02:42:52.775Z,56.98
2018-08-07T02:45:23.283Z,56.43
2018-08-07T02:47:53.815Z,57.01
2018-08-07T02:50:24.246Z,56.61
2018-08-07T02:52:54.768Z,56.54
2018-08-07T02:55:25.155Z,56.57
2018-08-07T02:57:55.680Z,56.63
2018-08-07T03:00:26.301Z,56.73
2018-08-07T03:02:56.776Z,56.80
2018-08-07T03:05:27.212Z,56.42
2018-08-07T03:07:57.756Z,56.11
2018-08-07T03:10:28.157Z,56.80
2018-08-07T03:12:58.619Z,56.24
2018-08-07T03:15:29.195Z,56.31
2018-08-07T03:17:59.688Z,56.46
2018-08-07T03:20:30.268Z,56.09
2018-08-07T03:23:00.680Z,56.56
2018-08-07T03:25:31.196Z,55.94
2018-08-07T03:28:01.711Z,56.11
2018-08-07T03:30:32.149Z,56.24
2018-08-07T03:33:02.695Z,56.50
2018-08-07T03:35:33.220Z,56.53
2018-08-07T03:38:03.727Z,55.95
2018-08-07T03:40:34.150Z,56.46
2018-08-07T03:43:04.692Z,56.22
2018-08-07T03:45:35.168Z,56.94
2018-08-07T03:48:05.876Z,56.56
2018-08-07T03:50:36.355Z,55.97
2018-08-07T03:53:06.967Z,55.69
2018-08-07T03:55:37.411Z,55.71
2018-08-07T03:58:07.971Z,55.59
2018-08-07T04:00:43.538Z,55.49
2018-08-07T04:03:14.104Z,55.01
2018-08-07T04:05:44.680Z,54.38
2018-08-07T04:08:15.248Z,54.17
2018-08-07T04:10:45.714Z,53.88
2018-08-07T04:13:16.292Z,53.33
2018-08-07T04:15:46.719Z,52.67
2018-08-07T04:18:17.296Z,52.80
2018-08-07T04:20:47.763Z,51.67
2018-08-07T04:23:18.182Z,51.92
2018-08-07T04:25:48.612Z,51.02
2018-08-07T04:28:19.028Z,51.50
2018-08-07T04:30:49.473Z,50.22
2018-08-07T04:33:19.907Z,50.89
2018-08-07T04:35:50.422Z,50.64
2018-08-07T04:38:20.924Z,49.51
2018-08-07T04:40:51.356Z,49.11
2018-08-07T04:43:21.798Z,48.08
2018-08-07T04:45:52.245Z,48.03
2018-08-07T04:48:22.745Z,48.04
2018-08-07T04:50:53.254Z,47.35
2018-08-07T04:53:23.863Z,46.43
2018-08-07T04:55:54.291Z,45.52
2018-08-07T04:58:24.764Z,45.99
2018-08-07T05:00:57.768Z,45.52
2018-08-07T05:03:28.227Z,44.83
2018-08-07T05:05:58.747Z,44.99
2018-08-07T05:08:29.312Z,45.56
2018-08-07T05:10:59.838Z,44.23
2018-08-07T05:13:31.191Z,44.02
2018-08-07T05:16:01.649Z,44.56
2018-08-07T05:18:32.262Z,43.85
2018-08-07T05:21:02.719Z,43.79
2018-08-07T05:23:33.339Z,42.62
2018-08-07T05:26:03.887Z,42.89
2018-08-07T05:28:34.513Z,43.08
2018-08-07T05:31:05.025Z,41.77
2018-08-07T05:33:35.666Z,42.28
2018-08-07T05:36:06.208Z,42.03
2018-08-07T05:38:36.791Z,42.23
2018-08-07T05:41:07.305Z,41.90
2018-08-07T05:43:37.735Z,41.57
2018-08-07T05:46:08.227Z,41.07
2018-08-07T05:48:38.839Z,41.21
2018-08-07T05:51:09.745Z,41.48
2018-08-07T05:53:39.825Z,40.58
2018-08-07T05:56:10.336Z,40.95
2018-08-07T05:58:40.753Z,39.90
2018-08-07T06:01:11.343Z,40.52
2018-08-07T06:03:41.905Z,39.78
2018-08-07T06:06:12.468Z,38.85
2018-08-07T06:08:42.919Z,38.98
2018-08-07T06:11:13.540Z,38.34
2018-08-07T06:13:44.051Z,38.37
2018-08-07T06:16:14.724Z,38.50
2018-08-07T06:18:45.201Z,38.26
2018-08-07T06:21:15.723Z,37.63
2018-08-07T06:23:46.376Z,37.49
2018-08-07T06:26:16.943Z,37.04
2018-08-07T06:28:47.495Z,36.77
2018-08-07T06:31:18.116Z,36.96
2018-08-07T06:33:49.650Z,36.98
2018-08-07T06:36:20.280Z,36.32
2018-08-07T06:38:50.920Z,35.67
2018-08-07T06:41:21.617Z,35.32
2018-08-07T06:43:52.055Z,35.74
2018-08-07T06:46:22.601Z,35.50
2018-08-07T06:48:53.205Z,34.69
2018-08-07T06:51:23.828Z,35.58
2018-08-07T06:53:54.340Z,34.13
2018-08-07T06:56:24.802Z,34.73
2018-08-07T06:58:55.327Z,34.03
2018-08-07T07:01:25.856Z,33.09
2018-08-07T07:03:56.389Z,33.54
2018-08-07T07:06:26.845Z,33.81
2018-08-07T07:08:57.479Z,33.17
2018-08-07T07:11:28.123Z,32.55
2018-08-07T07:13:59.067Z,33.16
2018-08-07T07:16:29.598Z,32.94
2018-08-07T07:19:00.143Z,33.41
2018-08-07T07:21:30.659Z,33.37
2018-08-07T07:24:01.195Z,32.62
2018-08-07T07:26:31.816Z,32.71
2018-08-07T07:29:02.489Z,33.04
2018-08-07T07:31:32.948Z,32.16
2018-08-07T07:34:03.450Z,32.34
2018-08-07T07:36:34.002Z,31.73
2018-08-07T07:39:06.116Z,31.81
2018-08-07T07:41:36.597Z,31.24
2018-08-07T07:44:07.120Z,31.58
2018-08-07T07:46:37.691Z,31.18
2018-08-07T07:49:08.199Z,31.63
2018-08-07T07:51:38.754Z,31.57
2018-08-07T07:54:09.443Z,31.42
2018-08-07T07:56:39.927Z,32.04
2018-08-07T07:59:10.476Z,31.19
2018-08-07T08:01:40.939Z,31.48
2018-08-07T08:04:11.507Z,31.72
2018-08-07T08:06:41.935Z,31.54
2018-08-07T08:09:12.497Z,31.52
2018-08-07T08:11:42.975Z,31.55
2018-08-07T08:14:13.550Z,31.46
2018-08-07T08:16:44.285Z,31.45
2018-08-07T08:19:14.771Z,30.86
2018-08-07T08:21:45.392Z,31.53
2018-08-07T08:24:16.594Z,30.93
2018-08-07T08:26:47.164Z,30.54
2018-08-07T08:29:17.715Z,30.78
2018-08-07T08:31:48.293Z,30.52
2018-08-07T08:34:19.431Z,30.07
2018-08-07T08:36:50.252Z,30.44
2018-08-07T08:39:20.884Z,30.21
2018-08-07T08:41:51.580Z,30.89
2018-08-07T08:44:22.072Z,31.22
2018-08-07T08:46:52.663Z,30.63
2018-08-07T08:49:23.315Z,29.90
2018-08-07T08:51:53.939Z,30.46
2018-08-07T08:54:24.543Z,30.23
2018-08-07T08:56:55.076Z,30.71
2018-08-07T08:59:25.732Z,30.74
2018-08-07T09:01:56.428Z,29.93
2018-08-07T09:04:27.040Z,29.74
2018-08-07T09:06:57.700Z,28.96
2018-08-07T09:09:28.189Z,29.03
2018-08-07T09:11:58.805Z,29.22
2018-08-07T09:14:29.384Z,28.97
2018-08-07T09:17:00.387Z,28.25
2018-08-07T09:19:30.979Z,28.21
2018-08-07T09:22:01.639Z,27.72
2018-08-07T09:24:32.122Z,27.70
2018-08-07T09:27:02.697Z,26.56
2018-08-07T09:29:33.110Z,27.43
2018-08-07T09:32:03.629Z,26.71
2018-08-07T09:34:34.077Z,26.47
2018-08-07T09:37:04.599Z,26.47
2018-08-07T09:39:35.137Z,26.90
2018-08-07T09:42:05.643Z,26.41
2018-08-07T09:44:36.363Z,26.87
2018-08-07T09:47:06.908Z,26.00
2018-08-07T09:49:37.540Z,25.96
2018-08-07T09:52:08.146Z,26.30
2018-08-07T09:54:38.650Z,26.42
2018-08-07T09:57:09.150Z,25.98
2018-08-07T09:59:39.874Z,26.40
2018-08-07T10:02:15.508Z,25.96
2018-08-07T10:04:46.023Z,26.50
2018-08-07T10:07:17.419Z,26.13
2018-08-07T10:09:47.897Z,25.83
2018-08-07T10:12:18.398Z,25.43
2018-08-07T10:14:48.891Z,26.22
2018-08-07T10:17:19.372Z,26.62
2018-08-07T10:19:49.871Z,25.70
2018-08-07T10:22:20.317Z,27.03
2018-08-07T10:24:50.842Z,25.85
2018-08-07T10:27:21.350Z,26.86
2018-08-07T10:29:51.855Z,25.41
2018-08-07T10:32:22.308Z,25.03
2018-08-07T10:34:52.839Z,23.74
2018-08-07T10:37:23.390Z,24.31
2018-08-07T10:39:53.993Z,23.15
2018-08-07T10:42:24.571Z,22.58
2018-08-07T10:44:55.262Z,22.88
2018-08-07T10:47:25.861Z,23.30
2018-08-07T10:49:56.445Z,23.65
2018-08-07T10:52:26.982Z,23.69
2018-08-07T10:54:57.889Z,23.66
2018-08-07T10:57:28.792Z,23.57
2018-08-07T10:59:59.371Z,22.88
2018-08-07T11:02:30.027Z,22.16
2018-08-07T11:05:00.555Z,22.93
2018-08-07T11:07:31.216Z,23.33
2018-08-07T11:10:02.152Z,22.42
2018-08-07T11:12:32.632Z,22.33
2018-08-07T11:15:03.236Z,22.70
2018-08-07T11:17:33.812Z,22.17
2018-08-07T11:20:04.681Z,22.44
2018-08-07T11:22:35.456Z,22.42
2018-08-07T11:25:06.271Z,23.05
2018-08-07T11:27:36.894Z,23.29
2018-08-07T11:30:10.376Z,22.16
2018-08-07T11:32:40.907Z,23.62
2018-08-07T11:35:11.619Z,23.17
2018-08-07T11:37:42.727Z,23.06
2018-08-07T11:40:15.488Z,23.27
2018-08-07T11:42:47.223Z,23.09
2018-08-07T11:45:19.075Z,23.71
2018-08-07T11:47:49.703Z,23.79
2018-08-07T11:50:23.396Z,23.96
2018-08-07T11:52:54.077Z,23.36
2018-08-07T11:55:25.298Z,22.89
2018-08-07T11:57:57.231Z,22.68
2018-08-07T12:00:37.212Z,23.58
2018-08-07T12:03:09.228Z,23.88
2018-08-07T12:05:39.862Z,23.42
2018-08-07T12:08:10.504Z,23.75
2018-08-07T12:10:41.014Z,24.00
2018-08-07T12:13:11.543Z,24.17
2018-08-07T12:15:42.105Z,24.41
2018-08-07T12:18:12.641Z,22.84
2018-08-07T12:20:43.199Z,23.96
2018-08-07T12:23:13.659Z,23.48
2018-08-07T12:25:44.119Z,24.10
2018-08-07T12:28:14.643Z,24.13
2018-08-07T12:30:46.600Z,24.67
2018-08-07T12:33:17.235Z,22.09
2018-08-07T12:35:47.931Z,23.92
2018-08-07T12:38:18.427Z,22.81
2018-08-07T12:40:48.984Z,23.03
2018-08-07T12:43:19.479Z,22.70
2018-08-07T12:45:50.068Z,23.56
2018-08-07T12:48:20.499Z,23.25
2018-08-07T12:50:51.093Z,22.89
2018-08-07T12:53:21.721Z,23.39
2018-08-07T12:55:52.323Z,22.37
2018-08-07T12:58:22.875Z,23.39
2018-08-07T13:00:53.625Z,23.06
2018-08-07T13:03:24.232Z,22.33
2018-08-07T13:05:55.021Z,24.00
2018-08-07T13:08:25.609Z,23.32
2018-08-07T13:10:56.382Z,22.88
2018-08-07T13:13:26.863Z,22.71
2018-08-07T13:15:57.435Z,22.67
2018-08-07T13:18:27.929Z,22.39
2018-08-07T13:20:58.603Z,22.48
2018-08-07T13:23:29.232Z,23.09
2018-08-07T13:25:59.806Z,22.33
2018-08-07T13:28:30.475Z,23.28
2018-08-07T13:31:01.109Z,22.65
2018-08-07T13:33:31.664Z,23.21
2018-08-07T13:36:02.203Z,23.78
2018-08-07T13:38:32.863Z,22.67
2018-08-07T13:41:03.362Z,22.35
2018-08-07T13:43:33.821Z,23.05
2018-08-07T13:46:04.427Z,22.84
2018-08-07T13:48:34.984Z,22.16
2018-08-07T13:51:05.703Z,22.08
2018-08-07T13:53:36.318Z,23.34
2018-08-07T13:56:07.865Z,23.84
2018-08-07T13:58:38.582Z,23.41
2018-08-07T14:01:09.475Z,22.24
2018-08-07T14:03:40.014Z,22.01
2018-08-07T14:06:10.645Z,22.96
2018-08-07T14:08:41.246Z,23.40
2018-08-07T14:11:11.862Z,26.70
2018-08-07T14:13:42.385Z,28.10
2018-08-07T14:16:12.868Z,29.31
2018-08-07T14:18:43.422Z,28.87
2018-08-07T14:21:13.963Z,29.39
2018-08-07T14:23:44.464Z,29.95
2018-08-07T14:26:15.136Z,30.17
2018-08-07T14:28:45.670Z,29.01
2018-08-07T14:31:16.284Z,28.93
2018-08-07T14:33:46.983Z,29.30
2018-08-07T14:36:17.458Z,29.00
2018-08-07T14:38:47.892Z,29.19
2018-08-07T14:41:18.342Z,29.61
2018-08-07T14:43:48.787Z,30.03
2018-08-07T14:46:19.348Z,31.19
2018-08-07T14:48:49.840Z,31.53
2018-08-07T14:51:20.540Z,32.11
2018-08-07T14:53:50.946Z,31.93
2018-08-07T14:56:21.448Z,31.92
2018-08-07T14:58:51.922Z,31.88
2018-08-07T15:01:22.439Z,31.13
2018-08-07T15:03:52.916Z,30.86
2018-08-07T15:06:23.581Z,31.17
2018-08-07T15:08:54.137Z,31.40
2018-08-07T15:11:24.687Z,31.75
2018-08-07T15:13:55.323Z,32.12
2018-08-07T15:16:25.832Z,31.99
2018-08-07T15:18:56.231Z,32.95
2018-08-07T15:21:26.739Z,31.95
2018-08-07T15:23:57.127Z,32.37
2018-08-07T15:26:27.591Z,31.72
2018-08-07T15:28:58.115Z,32.41
2018-08-07T15:31:28.599Z,32.01
2018-08-07T15:33:59.048Z,31.82
2018-08-07T15:36:29.543Z,32.09
2018-08-07T15:39:00.036Z,31.54
2018-08-07T15:41:30.430Z,31.81
2018-08-07T15:44:00.938Z,31.90
2018-08-07T15:46:31.328Z,32.13
2018-08-07T15:49:01.796Z,31.33
2018-08-07T15:51:32.272Z,32.44
2018-08-07T15:54:02.772Z,32.63
2018-08-07T15:56:33.248Z,32.63
2018-08-07T15:59:03.767Z,33.15
2018-08-07T16:01:34.243Z,33.42
2018-08-07T16:04:04.730Z,33.52
2018-08-07T16:06:35.302Z,33.51
2018-08-07T16:09:08.639Z,33.91
2018-08-07T16:11:39.144Z,33.02
2018-08-07T16:14:09.728Z,33.67
2018-08-07T16:16:40.293Z,33.65
2018-08-07T16:19:10.735Z,33.87
2018-08-07T16:21:41.265Z,33.95
2018-08-07T16:24:11.790Z,33.75
2018-08-07T16:26:42.320Z,34.05
2018-08-07T16:29:12.784Z,34.58
2018-08-07T16:31:43.608Z,34.68
2018-08-07T16:34:14.300Z,34.46
2018-08-07T16:36:44.791Z,34.63
2018-08-07T16:39:15.465Z,35.29
2018-08-07T16:41:45.948Z,34.87
2018-08-07T16:44:16.398Z,35.70
2018-08-07T16:46:46.862Z,36.01
2018-08-07T16:49:17.372Z,36.28
2018-08-07T16:51:47.848Z,36.13
2018-08-07T16:54:18.346Z,36.75
2018-08-07T16:56:48.756Z,37.19
2018-08-07T16:59:19.284Z,37.18
2018-08-07T17:01:49.725Z,37.50
2018-08-07T17:04:20.187Z,38.06
2018-08-07T17:06:50.655Z,38.51
2018-08-07T17:09:21.095Z,38.39
2018-08-07T17:11:51.536Z,38.98
2018-08-07T17:14:22.136Z,38.90
2018-08-07T17:16:52.596Z,38.81
2018-08-07T17:19:23.080Z,38.87
2018-08-07T17:21:53.635Z,38.74
2018-08-07T17:24:24.183Z,38.95
2018-08-07T17:26:54.719Z,39.74
2018-08-07T17:29:25.247Z,40.42
2018-08-07T17:31:55.674Z,40.67
2018-08-07T17:34:26.167Z,40.35
2018-08-07T17:36:56.632Z,40.71
2018-08-07T17:39:27.152Z,40.64
2018-08-07T17:41:57.648Z,40.76
2018-08-07T17:44:28.082Z,40.88
2018-08-07T17:46:58.606Z,41.16
2018-08-07T17:49:29.177Z,41.15
2018-08-07T17:51:59.721Z,41.19
2018-08-07T17:54:30.228Z,41.25
2018-08-07T17:57:00.772Z,41.88
2018-08-07T17:59:31.200Z,41.82
2018-08-07T18:02:01.697Z,41.70
2018-08-07T18:04:32.201Z,42.02
2018-08-07T18:07:02.773Z,42.95
2018-08-07T18:09:33.276Z,42.66
2018-08-07T18:12:03.872Z,43.60
2018-08-07T18:14:34.339Z,43.93
2018-08-07T18:17:05.100Z,44.36
2018-08-07T18:19:35.599Z,44.06
2018-08-07T18:22:06.131Z,44.15
2018-08-07T18:24:36.667Z,44.98
2018-08-07T18:27:07.238Z,44.39
2018-08-07T18:29:37.683Z,43.71
2018-08-07T18:32:08.458Z,44.57
2018-08-07T18:34:38.918Z,44.30
2018-08-07T18:37:09.395Z,45.19
2018-08-07T18:39:39.858Z,45.34
2018-08-07T18:42:10.363Z,45.51
2018-08-07T18:44:40.834Z,46.06
2018-08-07T18:47:11.324Z,46.14
2018-08-07T18:49:41.746Z,46.91
2018-08-07T18:52:12.278Z,46.20
2018-08-07T18:54:42.854Z,47.10
2018-08-07T18:57:13.395Z,47.86
2018-08-07T18:59:43.828Z,47.79
2018-08-07T19:02:14.412Z,47.88
2018-08-07T19:04:44.885Z,48.51
2018-08-07T19:07:15.507Z,48.48
2018-08-07T19:09:45.961Z,47.95
2018-08-07T19:12:16.512Z,48.29
2018-08-07T19:14:46.984Z,47.74
2018-08-07T19:17:17.403Z,48.42
2018-08-07T19:19:47.924Z,48.51
2018-08-07T19:22:18.443Z,48.38
2018-08-07T19:24:48.947Z,49.16
2018-08-07T19:27:19.429Z,48.34
2018-08-07T19:29:49.919Z,49.64
2018-08-07T19:32:20.462Z,49.78
2018-08-07T19:34:50.891Z,49.75
2018-08-07T19:37:21.429Z,49.89
2018-08-07T19:39:51.915Z,49.75
2018-08-07T19:42:22.335Z,49.26
2018-08-07T19:44:52.866Z,49.82
2018-08-07T19:47:23.392Z,50.54
2018-08-07T19:49:53.875Z,50.58
2018-08-07T19:52:24.517Z,50.70
2018-08-07T19:54:54.978Z,50.60
2018-08-07T19:57:25.475Z,49.93
2018-08-07T19:59:55.874Z,50.37
2018-08-07T20:02:26.396Z,50.32
2018-08-07T20:04:56.864Z,50.18
2018-08-07T20:07:27.404Z,50.61
2018-08-07T20:09:57.923Z,50.53
2018-08-07T20:12:28.431Z,50.65
2018-08-07T20:14:58.857Z,50.75
2018-08-07T20:17:29.397Z,50.58
2018-08-07T20:19:59.859Z,51.02
2018-08-07T20:22:30.346Z,51.14
2018-08-07T20:25:00.788Z,50.10
2018-08-07T20:27:31.400Z,50.05
2018-08-07T20:30:01.900Z,49.59
2018-08-07T20:32:32.347Z,50.21
2018-08-07T20:35:02.834Z,49.62
2018-08-07T20:37:33.255Z,49.33
2018-08-07T20:40:03.902Z,49.42
2018-08-07T20:42:34.314Z,49.28
2018-08-07T20:45:05.410Z,49.88
2018-08-07T20:47:35.914Z,50.06
2018-08-07T20:50:08.408Z,49.21
2018-08-07T20:52:38.916Z,49.72
2018-08-07T20:55:09.363Z,49.96
2018-08-07T20:57:39.912Z,49.61
2018-08-07T21:00:13.227Z,49.87
2018-08-07T21:02:43.675Z,49.63
2018-08-07T21:05:14.115Z,49.63
2018-08-07T21:07:44.707Z,49.57
2018-08-07T21:10:17.600Z,49.61
2018-08-07T21:12:48.227Z,49.68
2018-08-07T21:15:18.760Z,48.63
2018-08-07T21:17:49.275Z,49.14
2018-08-07T21:20:20.866Z,48.89
2018-08-07T21:22:51.363Z,48.99
2018-08-07T21:25:23.206Z,48.15
2018-08-07T21:27:57.105Z,47.88
2018-08-07T21:30:29.899Z,47.79
2018-08-07T21:33:00.446Z,48.01
2018-08-07T21:35:31.015Z,48.74
2018-08-07T21:38:01.557Z,48.50
2018-08-07T21:40:32.123Z,48.67
2018-08-07T21:43:02.555Z,48.87
2018-08-07T21:45:33.079Z,48.87
2018-08-07T21:48:03.636Z,48.78
2018-08-07T21:50:34.024Z,48.97
2018-08-07T21:53:04.607Z,49.55
2018-08-07T21:55:35.037Z,49.14
2018-08-07T21:58:05.629Z,49.86
2018-08-07T22:00:44.594Z,50.06
2018-08-07T22:03:15.131Z,50.98
2018-08-07T22:05:45.663Z,50.32
2018-08-07T22:08:16.475Z,50.73
2018-08-07T22:10:46.905Z,50.85
2018-08-07T22:13:17.390Z,50.71
2018-08-07T22:15:47.927Z,50.14
2018-08-07T22:18:18.442Z,50.52
2018-08-07T22:20:48.920Z,50.62
2018-08-07T22:23:19.387Z,50.25
2018-08-07T22:25:49.934Z,49.69
2018-08-07T22:28:20.456Z,50.56
2018-08-07T22:30:50.932Z,50.55
2018-08-07T22:33:21.427Z,50.64
2018-08-07T22:35:51.854Z,50.25
2018-08-07T22:38:22.278Z,50.15
2018-08-07T22:40:52.743Z,50.37
2018-08-07T22:43:23.344Z,50.05
2018-08-07T22:45:53.804Z,50.32
2018-08-07T22:48:24.444Z,49.50
2018-08-07T22:50:54.844Z,50.01
2018-08-07T22:53:25.283Z,51.56
2018-08-07T22:55:55.712Z,51.38
2018-08-07T22:58:26.232Z,51.16
2018-08-07T23:00:56.759Z,51.33
2018-08-07T23:03:27.256Z,51.45
2018-08-07T23:05:57.743Z,51.89
2018-08-07T23:08:28.235Z,51.53
2018-08-07T23:10:58.600Z,52.29
2018-08-07T23:13:29.112Z,51.88
2018-08-07T23:15:59.514Z,52.99
2018-08-07T23:18:29.961Z,54.43
2018-08-07T23:21:00.443Z,53.83
2018-08-07T23:23:30.918Z,54.38
2018-08-07T23:26:01.334Z,53.72
2018-08-07T23:28:31.754Z,53.76
2018-08-07T23:31:02.309Z,53.97
2018-08-07T23:33:32.784Z,54.28
2018-08-07T23:36:03.298Z,54.31
2018-08-07T23:38:33.696Z,54.10
2018-08-07T23:41:04.167Z,54.21
2018-08-07T23:43:34.610Z,54.23
2018-08-07T23:46:05.078Z,54.57
2018-08-07T23:48:35.641Z,54.10
2018-08-07T23:51:06.115Z,53.70
2018-08-07T23:53:36.586Z,55.01
2018-08-07T23:56:07.306Z,55.03
2018-08-07T23:58:37.748Z,54.71
